Roza A — TCRB7 — position and weather

sailwx.info

Track history (hours):
 
Tides and Currents Weather Stations Pressure Air Temp Water Temp Dewpoint Dewpoint Depression Visibility Wind Speed Wind Dir Waves Ship Positions

Roza A

Last reported at 2015-Jan-25 04:04 UTC. Time now 2015-Jan-26 06:28 UTC.
Position N 39°35' W 000°04'.

Length 169 m; draft 6.5 m.

Type: Ship (hazmat cat A). MMSI: 271001057.

Date/timePositionNaut miles runAvg speedWind from/ knotsBaromVisibWave heightAir tempDewpointWater temp
2015-Jan-25 04:04N 39°35' W 000°04'510.7
2015-Jan-25 03:33N 39°31' W 000°09'9 9.0
2015-Jan-25 02:33N 39°26' W 000°19'1 1.0
2015-Jan-25 01:32N 39°27' W 000°19'0 0.0
2015-Jan-25 00:32N 39°27' W 000°19'0 0.0
2015-Jan-24 23:32N 39°27' W 000°19'0 0.0
2015-Jan-24 22:32N 39°27' W 000°19'0 0.0
2015-Jan-24 21:32N 39°27' W 000°19'0 0.0
2015-Jan-24 20:32N 39°27' W 000°19'0 0.0
2015-Jan-24 19:32N 39°27' W 000°19'0 0.0
2015-Jan-24 18:32N 39°27' W 000°19'0 0.0
2015-Jan-24 17:32N 39°27' W 000°19'0 0.0
2015-Jan-24 16:32N 39°27' W 000°19'0 0.0
2015-Jan-24 15:32N 39°27' W 000°19'0 0.0
2015-Jan-24 14:32N 39°27' W 000°19'0 0.0
2015-Jan-24 13:32N 39°27' W 000°19'0 0.0
2015-Jan-24 12:32N 39°27' W 000°19'0 0.0
2015-Jan-24 11:32N 39°27' W 000°19'0 0.0
2015-Jan-24 10:26N 39°27' W 000°19'0 0.0
2015-Jan-24 09:32N 39°27' W 000°19'0 0.0
2015-Jan-24 08:32N 39°27' W 000°19'0 0.0
2015-Jan-24 07:32N 39°27' W 000°19'0 0.0
2015-Jan-24 06:32N 39°27' W 000°19'0 0.0
2015-Jan-24 05:20N 39°27' W 000°19'0 0.0
2015-Jan-24 04:32N 39°27' W 000°19'0 0.0
2015-Jan-24 03:32N 39°27' W 000°19'0 0.0
2015-Jan-24 02:32N 39°27' W 000°19'0 0.0
2015-Jan-24 01:32N 39°27' W 000°19'0 0.0
2015-Jan-24 00:29N 39°27' W 000°19'0 0.0
2015-Jan-23 23:32N 39°27' W 000°19'3 3.3
2015-Jan-23 22:33N 39°25' W 000°16'1212.0
2015-Jan-23 21:32N 39°23' W 000°01'7413.8
2015-Jan-23 16:12N 39°13' E 001°34'913.5
2015-Jan-23 15:33N 39°12' E 001°45'1513.4
2015-Jan-23 14:28N 39°10' E 002°04'1213.5
2015-Jan-23 13:33N 39°07' E 002°19'1413.6
2015-Jan-23 12:33N 39°05' E 002°36'1413.6
2015-Jan-23 11:34N 39°01' E 002°53'1313.3
2015-Jan-23 10:33N 38°58' E 003°10'1312.8
2015-Jan-23 09:33N 38°54' E 003°26'1312.6
2015-Jan-23 08:33N 38°51' E 003°41'22413.1
2015-Jan-22 15:31N 38°46' E 008°28'1714.4
2015-Jan-22 14:21N 38°47' E 008°50'1214.6
2015-Jan-22 13:33N 38°55' E 009°01'1312.8
2015-Jan-22 12:33N 39°07' E 009°07'6 6.1
2015-Jan-22 11:31N 39°13' E 009°04'0 0.0
2015-Jan-22 10:31N 39°13' E 009°04'0 0.0
2015-Jan-22 09:31N 39°13' E 009°04'0 0.0
2015-Jan-22 08:31N 39°13' E 009°04'0 0.0
2015-Jan-22 07:31N 39°13' E 009°04'0 0.0
2015-Jan-22 06:31N 39°13' E 009°04'0 0.1
2015-Jan-22 05:33N 39°13' E 009°04'3 3.0
2015-Jan-22 04:33N 39°10' E 009°07'4 3.7
2015-Jan-22 03:33N 39°07' E 009°07'1110.9
2015-Jan-22 02:33N 39°02' E 009°20'1110.7
2015-Jan-22 01:31N 38°55' E 009°31'112 6.5
2015-Jan-21 08:18N 37°56' E 011°32'12010.2
2015-Jan-20 20:33N 36°55' E 013°42'1010.1
2015-Jan-20 19:33N 36°51' E 013°54'1010.0
2015-Jan-20 18:33N 36°47' E 014°05'1010.0
2015-Jan-20 17:33N 36°44' E 014°17'1010.1
2015-Jan-20 16:33N 36°40' E 014°28'10 9.8
2015-Jan-20 15:33N 36°38' E 014°40'1010.2
2015-Jan-20 14:33N 36°35' E 014°52'  
2015-Jan-18 00:30N 38°48' E 026°48'100 3.4
2015-Jan-16 19:08N 40°28' E 026°50'  
Track history (hours):
 
Tides and Currents Weather Stations Pressure Air Temp Water Temp Dewpoint Dewpoint Depression Visibility Wind Speed Wind Dir Waves Ship Positions

Roza A

Last reported at 2015-Jan-25 04:04 UTC. Time now 2015-Jan-26 06:28 UTC.
Position N 39°35' W 000°04'.

Length 169 m; draft 6.5 m.

Type: Ship (hazmat cat A). MMSI: 271001057.

Date/timePositionNaut miles runAvg speedWind from/ knotsBaromVisibWave heightAir tempDewpointWater temp
2015-Jan-25 04:04N 39°35' W 000°04'510.7
2015-Jan-25 03:33N 39°31' W 000°09'9 9.0
2015-Jan-25 02:33N 39°26' W 000°19'1 1.0
2015-Jan-25 01:32N 39°27' W 000°19'0 0.0
2015-Jan-25 00:32N 39°27' W 000°19'0 0.0
2015-Jan-24 23:32N 39°27' W 000°19'0 0.0
2015-Jan-24 22:32N 39°27' W 000°19'0 0.0
2015-Jan-24 21:32N 39°27' W 000°19'0 0.0
2015-Jan-24 20:32N 39°27' W 000°19'0 0.0
2015-Jan-24 19:32N 39°27' W 000°19'0 0.0
2015-Jan-24 18:32N 39°27' W 000°19'0 0.0
2015-Jan-24 17:32N 39°27' W 000°19'0 0.0
2015-Jan-24 16:32N 39°27' W 000°19'0 0.0
2015-Jan-24 15:32N 39°27' W 000°19'0 0.0
2015-Jan-24 14:32N 39°27' W 000°19'0 0.0
2015-Jan-24 13:32N 39°27' W 000°19'0 0.0
2015-Jan-24 12:32N 39°27' W 000°19'0 0.0
2015-Jan-24 11:32N 39°27' W 000°19'0 0.0
2015-Jan-24 10:26N 39°27' W 000°19'0 0.0
2015-Jan-24 09:32N 39°27' W 000°19'0 0.0
2015-Jan-24 08:32N 39°27' W 000°19'0 0.0
2015-Jan-24 07:32N 39°27' W 000°19'0 0.0
2015-Jan-24 06:32N 39°27' W 000°19'0 0.0
2015-Jan-24 05:20N 39°27' W 000°19'0 0.0
2015-Jan-24 04:32N 39°27' W 000°19'0 0.0
2015-Jan-24 03:32N 39°27' W 000°19'0 0.0
2015-Jan-24 02:32N 39°27' W 000°19'0 0.0
2015-Jan-24 01:32N 39°27' W 000°19'0 0.0
2015-Jan-24 00:29N 39°27' W 000°19'0 0.0
2015-Jan-23 23:32N 39°27' W 000°19'3 3.3
2015-Jan-23 22:33N 39°25' W 000°16'1212.0
2015-Jan-23 21:32N 39°23' W 000°01'7413.8
2015-Jan-23 16:12N 39°13' E 001°34'913.5
2015-Jan-23 15:33N 39°12' E 001°45'1513.4
2015-Jan-23 14:28N 39°10' E 002°04'1213.5
2015-Jan-23 13:33N 39°07' E 002°19'1413.6
2015-Jan-23 12:33N 39°05' E 002°36'1413.6
2015-Jan-23 11:34N 39°01' E 002°53'1313.3
2015-Jan-23 10:33N 38°58' E 003°10'1312.8
2015-Jan-23 09:33N 38°54' E 003°26'1312.6
2015-Jan-23 08:33N 38°51' E 003°41'22413.1
2015-Jan-22 15:31N 38°46' E 008°28'1714.4
2015-Jan-22 14:21N 38°47' E 008°50'1214.6
2015-Jan-22 13:33N 38°55' E 009°01'1312.8
2015-Jan-22 12:33N 39°07' E 009°07'6 6.1
2015-Jan-22 11:31N 39°13' E 009°04'0 0.0
2015-Jan-22 10:31N 39°13' E 009°04'0 0.0
2015-Jan-22 09:31N 39°13' E 009°04'0 0.0
2015-Jan-22 08:31N 39°13' E 009°04'0 0.0
2015-Jan-22 07:31N 39°13' E 009°04'0 0.0
2015-Jan-22 06:31N 39°13' E 009°04'0 0.1
2015-Jan-22 05:33N 39°13' E 009°04'3 3.0
2015-Jan-22 04:33N 39°10' E 009°07'4 3.7
2015-Jan-22 03:33N 39°07' E 009°07'1110.9
2015-Jan-22 02:33N 39°02' E 009°20'1110.7
2015-Jan-22 01:31N 38°55' E 009°31'112 6.5
2015-Jan-21 08:18N 37°56' E 011°32'12010.2
2015-Jan-20 20:33N 36°55' E 013°42'1010.1
2015-Jan-20 19:33N 36°51' E 013°54'1010.0
2015-Jan-20 18:33N 36°47' E 014°05'1010.0
2015-Jan-20 17:33N 36°44' E 014°17'1010.1
2015-Jan-20 16:33N 36°40' E 014°28'10 9.8
2015-Jan-20 15:33N 36°38' E 014°40'1010.2
2015-Jan-20 14:33N 36°35' E 014°52'  
2015-Jan-18 00:30N 38°48' E 026°48'100 3.4
2015-Jan-16 19:08N 40°28' E 026°50'  

Dump ship's entire track history